Terminal Aerodrome Forecast
Issued by NWS

Home | Current Version | Previous Version | Text Only | Print | Product List | Glossary On
Versions: 1 2 3 4 5 6 7 8 9 10 11 12 13 14 15
418
FTUS41 KCAR 252339
TAFFVE
TAF
KFVE 252339Z 2600/2624 12006KT P6SM -SHRA OVC050
     FM260300 15006KT 4SM -SHRA BR OVC020
     FM260800 18006KT 2SM BR VCSH OVC005
     FM261200 24006KT P6SM VCSH OVC010
     FM261500 28006KT P6SM VCSH BKN040
     FM261800 28006KT P6SM VCTS BKN040CB
     FM262200 28006KT P6SM BKN050=

USA.gov is the U.S. government's official web portal to all federal, state and local government web resources and services.